Deusa Dos Mares — CUIT7 — position and weather

sailwx.info

Track history (hours):
 
Tides and Currents Weather Stations Pressure Air Temp Water Temp Dewpoint Dewpoint Depression Visibility Wind Speed Wind Dir Waves Ship Positions

Deusa Dos Mares

Last reported at 2017-Nov-02 14:19 UTC. Time now 2017-Dec-14 04:29 UTC.
Position N 39°22' W 009°26'.
Warning: this ship's position is 41 days out of date.

Type: Fishing. MMSI: 263433660.

Date/timePositionNaut miles runAvg speedWind from/ knotsBaromVisibWave heightAir tempDewpointWater temp
2017-Nov-02 14:19N 39°22' W 009°26'  
2017-Oct-30 20:02N 39°21' W 009°22'0 0.0
2017-Oct-30 20:00N 39°21' W 009°22'2 4.6
2017-Oct-30 19:31N 39°22' W 009°25'5 6.6
2017-Oct-30 18:43N 39°26' W 009°29'0 1.5
2017-Oct-30 18:27N 39°26' W 009°28'3 6.0
2017-Oct-30 17:56N 39°28' W 009°31'1 2.2
2017-Oct-30 17:29N 39°28' W 009°32'0 0.0
2017-Oct-30 16:28N 39°28' W 009°32'1 1.2
2017-Oct-30 15:54N 39°28' W 009°32'2 3.9
2017-Oct-30 15:30N 39°28' W 009°30'1 3.0
2017-Oct-30 15:00N 39°27' W 009°30'8 8.0
2017-Oct-30 14:00N 39°21' W 009°24'1 2.4
2017-Oct-30 13:30N 39°21' W 009°22'  
2017-Oct-27 20:40N 39°21' W 009°22'0 0.0
2017-Oct-27 20:30N 39°21' W 009°22'0 0.0
2017-Oct-27 19:59N 39°21' W 009°22'0 0.0
2017-Oct-27 19:30N 39°21' W 009°22'7 6.7
2017-Oct-27 18:28N 39°26' W 009°29'0 0.2
2017-Oct-27 17:51N 39°26' W 009°28'0 0.3
2017-Oct-27 17:30N 39°26' W 009°28'0 0.4
2017-Oct-27 17:00N 39°26' W 009°28'1 1.3
2017-Oct-27 16:30N 39°25' W 009°28'0 0.5
2017-Oct-27 15:50N 39°26' W 009°28'1 4.5
2017-Oct-27 15:30N 39°25' W 009°27'4 8.4
2017-Oct-27 15:00N 39°21' W 009°24'1 0.1
2017-Oct-26 20:09N 39°21' W 009°22'0 0.0
2017-Oct-26 20:00N 39°21' W 009°22'5 1.2
2017-Oct-26 15:31N 39°25' W 009°27'0 8.5
2017-Oct-26 15:29N 39°25' W 009°27'4 8.6
2017-Oct-26 15:00N 39°21' W 009°24'6 0.1
2017-Oct-24 19:39N 39°15' W 009°26'1 5.8
2017-Oct-24 19:28N 39°14' W 009°27'0 0.2
2017-Oct-24 19:00N 39°14' W 009°27'0 0.5
2017-Oct-24 18:30N 39°14' W 009°27'3 5.6
2017-Oct-24 18:00N 39°11' W 009°26'3 5.0
2017-Oct-24 17:30N 39°10' W 009°24'1 2.6
2017-Oct-24 17:00N 39°11' W 009°24'0 0.0
2017-Oct-24 16:30N 39°11' W 009°24'0 0.0
2017-Oct-24 16:00N 39°11' W 009°24'1 1.5
2017-Oct-24 15:30N 39°11' W 009°23'2 3.9
2017-Oct-24 15:00N 39°09' W 009°24'0 0.9
2017-Oct-24 14:30N 39°09' W 009°23'0 1.0
2017-Oct-24 14:00N 39°09' W 009°23'0 0.0
2017-Oct-24 13:30N 39°09' W 009°23'2 3.8
2017-Oct-24 13:00N 39°11' W 009°23'4 8.7
2017-Oct-24 12:30N 39°15' W 009°22'6 0.4
2017-Oct-23 19:02N 39°21' W 009°22'0 0.0
2017-Oct-23 19:00N 39°21' W 009°22'0 0.0
2017-Oct-23 18:30N 39°21' W 009°22'0 0.0
2017-Oct-23 18:00N 39°21' W 009°22'0 0.0
2017-Oct-23 17:30N 39°21' W 009°22'0 0.0
2017-Oct-23 16:54N 39°21' W 009°22'0 0.0
2017-Oct-23 16:30N 39°21' W 009°22'3 5.3
2017-Oct-23 15:57N 39°19' W 009°23'4 9.0
2017-Oct-23 15:31N 39°15' W 009°23'4 8.2
2017-Oct-23 15:00N 39°10' W 009°23'0 0.5
2017-Oct-23 14:30N 39°11' W 009°23'  
Track history (hours):
 
Tides and Currents Weather Stations Pressure Air Temp Water Temp Dewpoint Dewpoint Depression Visibility Wind Speed Wind Dir Waves Ship Positions

Deusa Dos Mares

Last reported at 2017-Nov-02 14:19 UTC. Time now 2017-Dec-14 04:29 UTC.
Position N 39°22' W 009°26'.
Warning: this ship's position is 41 days out of date.

Type: Fishing. MMSI: 263433660.

Date/timePositionNaut miles runAvg speedWind from/ knotsBaromVisibWave heightAir tempDewpointWater temp
2017-Nov-02 14:19N 39°22' W 009°26'  
2017-Oct-30 20:02N 39°21' W 009°22'0 0.0
2017-Oct-30 20:00N 39°21' W 009°22'2 4.6
2017-Oct-30 19:31N 39°22' W 009°25'5 6.6
2017-Oct-30 18:43N 39°26' W 009°29'0 1.5
2017-Oct-30 18:27N 39°26' W 009°28'3 6.0
2017-Oct-30 17:56N 39°28' W 009°31'1 2.2
2017-Oct-30 17:29N 39°28' W 009°32'0 0.0
2017-Oct-30 16:28N 39°28' W 009°32'1 1.2
2017-Oct-30 15:54N 39°28' W 009°32'2 3.9
2017-Oct-30 15:30N 39°28' W 009°30'1 3.0
2017-Oct-30 15:00N 39°27' W 009°30'8 8.0
2017-Oct-30 14:00N 39°21' W 009°24'1 2.4
2017-Oct-30 13:30N 39°21' W 009°22'  
2017-Oct-27 20:40N 39°21' W 009°22'0 0.0
2017-Oct-27 20:30N 39°21' W 009°22'0 0.0
2017-Oct-27 19:59N 39°21' W 009°22'0 0.0
2017-Oct-27 19:30N 39°21' W 009°22'7 6.7
2017-Oct-27 18:28N 39°26' W 009°29'0 0.2
2017-Oct-27 17:51N 39°26' W 009°28'0 0.3
2017-Oct-27 17:30N 39°26' W 009°28'0 0.4
2017-Oct-27 17:00N 39°26' W 009°28'1 1.3
2017-Oct-27 16:30N 39°25' W 009°28'0 0.5
2017-Oct-27 15:50N 39°26' W 009°28'1 4.5
2017-Oct-27 15:30N 39°25' W 009°27'4 8.4
2017-Oct-27 15:00N 39°21' W 009°24'1 0.1
2017-Oct-26 20:09N 39°21' W 009°22'0 0.0
2017-Oct-26 20:00N 39°21' W 009°22'5 1.2
2017-Oct-26 15:31N 39°25' W 009°27'0 8.5
2017-Oct-26 15:29N 39°25' W 009°27'4 8.6
2017-Oct-26 15:00N 39°21' W 009°24'6 0.1
2017-Oct-24 19:39N 39°15' W 009°26'1 5.8
2017-Oct-24 19:28N 39°14' W 009°27'0 0.2
2017-Oct-24 19:00N 39°14' W 009°27'0 0.5
2017-Oct-24 18:30N 39°14' W 009°27'3 5.6
2017-Oct-24 18:00N 39°11' W 009°26'3 5.0
2017-Oct-24 17:30N 39°10' W 009°24'1 2.6
2017-Oct-24 17:00N 39°11' W 009°24'0 0.0
2017-Oct-24 16:30N 39°11' W 009°24'0 0.0
2017-Oct-24 16:00N 39°11' W 009°24'1 1.5
2017-Oct-24 15:30N 39°11' W 009°23'2 3.9
2017-Oct-24 15:00N 39°09' W 009°24'0 0.9
2017-Oct-24 14:30N 39°09' W 009°23'0 1.0
2017-Oct-24 14:00N 39°09' W 009°23'0 0.0
2017-Oct-24 13:30N 39°09' W 009°23'2 3.8
2017-Oct-24 13:00N 39°11' W 009°23'4 8.7
2017-Oct-24 12:30N 39°15' W 009°22'6 0.4
2017-Oct-23 19:02N 39°21' W 009°22'0 0.0
2017-Oct-23 19:00N 39°21' W 009°22'0 0.0
2017-Oct-23 18:30N 39°21' W 009°22'0 0.0
2017-Oct-23 18:00N 39°21' W 009°22'0 0.0
2017-Oct-23 17:30N 39°21' W 009°22'0 0.0
2017-Oct-23 16:54N 39°21' W 009°22'0 0.0
2017-Oct-23 16:30N 39°21' W 009°22'3 5.3
2017-Oct-23 15:57N 39°19' W 009°23'4 9.0
2017-Oct-23 15:31N 39°15' W 009°23'4 8.2
2017-Oct-23 15:00N 39°10' W 009°23'0 0.5
2017-Oct-23 14:30N 39°11' W 009°23'  

Dump ship's entire track history